sensor_id;sensor_type;location;lat;lon;timestamp;pressure;altitude;pressure_sealevel;temperature;humidity
75317;BME280;63913;51.492;10.368;2024-03-06T00:02:05;98550.59;;;4.23;100.00
75317;BME280;63913;51.492;10.368;2024-03-06T00:04:30;98553.06;;;4.21;100.00
75317;BME280;63913;51.492;10.368;2024-03-06T00:06:56;98560.03;;;4.26;100.00
75317;BME280;63913;51.492;10.368;2024-03-06T00:09:23;98560.75;;;4.23;100.00
75317;BME280;63913;51.492;10.368;2024-03-06T00:11:48;98561.56;;;4.22;100.00
75317;BME280;63913;51.492;10.368;2024-03-06T00:14:16;98567.88;;;4.30;100.00
75317;BME280;63913;51.492;10.368;2024-03-06T00:16:42;98560.25;;;4.30;100.00
75317;BME280;63913;51.492;10.368;2024-03-06T00:19:08;98577.44;;;4.34;100.00
75317;BME280;63913;51.492;10.368;2024-03-06T00:21:33;98572.97;;;4.30;100.00
75317;BME280;63913;51.492;10.368;2024-03-06T00:23:58;98576.38;;;4.31;100.00
75317;BME280;63913;51.492;10.368;2024-03-06T00:26:24;98578.00;;;4.29;100.00
75317;BME280;63913;51.492;10.368;2024-03-06T00:28:49;98578.88;;;4.29;100.00
75317;BME280;63913;51.492;10.368;2024-03-06T00:31:14;98570.31;;;4.27;100.00
75317;BME280;63913;51.492;10.368;2024-03-06T00:33:40;98574.59;;;4.28;100.00
75317;BME280;63913;51.492;10.368;2024-03-06T00:36:06;98577.22;;;4.30;100.00
75317;BME280;63913;51.492;10.368;2024-03-06T00:38:31;98579.69;;;4.28;100.00
75317;BME280;63913;51.492;10.368;2024-03-06T00:40:57;98581.88;;;4.20;100.00
75317;BME280;63913;51.492;10.368;2024-03-06T00:43:23;98590.66;;;4.27;100.00
75317;BME280;63913;51.492;10.368;2024-03-06T00:45:48;98595.75;;;4.27;100.00
75317;BME280;63913;51.492;10.368;2024-03-06T00:48:14;98584.47;;;4.22;100.00
75317;BME280;63913;51.492;10.368;2024-03-06T00:50:39;98590.66;;;4.27;100.00
75317;BME280;63913;51.492;10.368;2024-03-06T00:53:05;98597.56;;;4.30;100.00
75317;BME280;63913;51.492;10.368;2024-03-06T00:55:31;98596.53;;;4.26;100.00
75317;BME280;63913;51.492;10.368;2024-03-06T00:57:56;98603.31;;;4.26;100.00
75317;BME280;63913;51.492;10.368;2024-03-06T01:00:22;98597.34;;;4.25;100.00
75317;BME280;63913;51.492;10.368;2024-03-06T01:02:47;98603.22;;;4.24;100.00
75317;BME280;63913;51.492;10.368;2024-03-06T01:05:13;98597.41;;;4.27;100.00
75317;BME280;63913;51.492;10.368;2024-03-06T01:07:38;98601.63;;;4.26;100.00
75317;BME280;63913;51.492;10.368;2024-03-06T01:10:05;98600.59;;;4.22;100.00
75317;BME280;63913;51.492;10.368;2024-03-06T01:12:34;98598.28;;;4.27;100.00
75317;BME280;63913;51.492;10.368;2024-03-06T01:14:59;98605.69;;;4.22;100.00
75317;BME280;63913;51.492;10.368;2024-03-06T01:17:25;98597.94;;;4.19;100.00
75317;BME280;63913;51.492;10.368;2024-03-06T01:19:51;98596.09;;;4.17;100.00
75317;BME280;63913;51.492;10.368;2024-03-06T01:22:17;98598.47;;;4.14;100.00
75317;BME280;63913;51.492;10.368;2024-03-06T01:24:43;98595.09;;;4.13;100.00
75317;BME280;63913;51.492;10.368;2024-03-06T01:27:09;98602.72;;;4.13;100.00
75317;BME280;63913;51.492;10.368;2024-03-06T01:29:34;98601.69;;;4.10;100.00
75317;BME280;63913;51.492;10.368;2024-03-06T01:32:01;98600.03;;;4.10;100.00
75317;BME280;63913;51.492;10.368;2024-03-06T01:34:26;98605.97;;;4.11;100.00
75317;BME280;63913;51.492;10.368;2024-03-06T01:36:52;98605.03;;;4.09;100.00
75317;BME280;63913;51.492;10.368;2024-03-06T01:39:18;98601.78;;;4.11;100.00
75317;BME280;63913;51.492;10.368;2024-03-06T01:41:47;98616.06;;;4.09;100.00
75317;BME280;63913;51.492;10.368;2024-03-06T01:44:17;98622.19;;;4.13;100.00
75317;BME280;63913;51.492;10.368;2024-03-06T01:46:46;98616.16;;;4.11;100.00
75317;BME280;63913;51.492;10.368;2024-03-06T01:49:15;98621.88;;;4.07;100.00
75317;BME280;63913;51.492;10.368;2024-03-06T01:51:42;98613.69;;;4.12;100.00
75317;BME280;63913;51.492;10.368;2024-03-06T01:54:10;98622.13;;;4.11;100.00
75317;BME280;63913;51.492;10.368;2024-03-06T01:56:38;98617.66;;;4.07;100.00
75317;BME280;63913;51.492;10.368;2024-03-06T01:59:06;98619.56;;;4.11;100.00
75317;BME280;63913;51.492;10.368;2024-03-06T02:01:32;98621.09;;;4.08;100.00
75317;BME280;63913;51.492;10.368;2024-03-06T02:03:59;98625.22;;;4.06;100.00
75317;BME280;63913;51.492;10.368;2024-03-06T02:06:25;98625.28;;;4.07;100.00
75317;BME280;63913;51.492;10.368;2024-03-06T02:08:51;98618.47;;;4.06;100.00
75317;BME280;63913;51.492;10.368;2024-03-06T02:11:16;98622.53;;;4.03;100.00
75317;BME280;63913;51.492;10.368;2024-03-06T02:13:43;98629.47;;;4.05;100.00
75317;BME280;63913;51.492;10.368;2024-03-06T02:16:09;98631.75;;;4.01;100.00
75317;BME280;63913;51.492;10.368;2024-03-06T02:18:35;98626.59;;;3.99;100.00
75317;BME280;63913;51.492;10.368;2024-03-06T02:21:00;98630.97;;;4.02;100.00
75317;BME280;63913;51.492;10.368;2024-03-06T02:23:25;98632.72;;;4.03;100.00
75317;BME280;63913;51.492;10.368;2024-03-06T02:25:51;98630.00;;;4.00;100.00
75317;BME280;63913;51.492;10.368;2024-03-06T02:28:17;98639.56;;;4.04;100.00
75317;BME280;63913;51.492;10.368;2024-03-06T02:30:43;98641.44;;;4.08;100.00
75317;BME280;63913;51.492;10.368;2024-03-06T02:33:08;98647.03;;;4.01;100.00
75317;BME280;63913;51.492;10.368;2024-03-06T02:35:37;98638.50;;;4.00;100.00
75317;BME280;63913;51.492;10.368;2024-03-06T02:38:04;98646.94;;;3.99;100.00
75317;BME280;63913;51.492;10.368;2024-03-06T02:40:32;98655.69;;;4.04;100.00
75317;BME280;63913;51.492;10.368;2024-03-06T02:42:58;98651.22;;;4.00;100.00
75317;BME280;63913;51.492;10.368;2024-03-06T02:45:23;98654.66;;;4.01;100.00
75317;BME280;63913;51.492;10.368;2024-03-06T02:47:49;98655.53;;;4.01;100.00
75317;BME280;63913;51.492;10.368;2024-03-06T02:50:14;98658.22;;;4.04;100.00
75317;BME280;63913;51.492;10.368;2024-03-06T02:52:40;98658.94;;;4.02;100.00
75317;BME280;63913;51.492;10.368;2024-03-06T02:55:06;98656.41;;;4.02;100.00
75317;BME280;63913;51.492;10.368;2024-03-06T02:57:31;98662.44;;;4.04;100.00
75317;BME280;63913;51.492;10.368;2024-03-06T02:59:57;98654.81;;;4.04;100.00
75317;BME280;63913;51.492;10.368;2024-03-06T03:02:23;98660.81;;;4.06;100.00
75317;BME280;63913;51.492;10.368;2024-03-06T03:04:49;98661.78;;;4.08;100.00
75317;BME280;63913;51.492;10.368;2024-03-06T03:07:15;98667.75;;;4.08;100.00
75317;BME280;63913;51.492;10.368;2024-03-06T03:09:40;98670.94;;;4.04;100.00
75317;BME280;63913;51.492;10.368;2024-03-06T03:12:06;98663.00;;;3.98;100.00
75317;BME280;63913;51.492;10.368;2024-03-06T03:14:31;98666.41;;;3.99;100.00
75317;BME280;63913;51.492;10.368;2024-03-06T03:16:58;98670.00;;;4.02;100.00
75317;BME280;63913;51.492;10.368;2024-03-06T03:19:24;98661.31;;;3.99;100.00
75317;BME280;63913;51.492;10.368;2024-03-06T03:21:49;98668.03;;;3.97;100.00
75317;BME280;63913;51.492;10.368;2024-03-06T03:24:14;98670.41;;;3.94;100.00
75317;BME280;63913;51.492;10.368;2024-03-06T03:26:40;98670.41;;;3.94;100.00
75317;BME280;63913;51.492;10.368;2024-03-06T03:29:07;98675.28;;;3.89;100.00
75317;BME280;63913;51.492;10.368;2024-03-06T03:31:33;98673.56;;;3.90;100.00
75317;BME280;63913;51.492;10.368;2024-03-06T03:33:58;98675.50;;;3.94;100.00
75317;BME280;63913;51.492;10.368;2024-03-06T03:36:23;98673.75;;;3.93;100.00
75317;BME280;63913;51.492;10.368;2024-03-06T03:38:50;98668.47;;;3.90;100.00
75317;BME280;63913;51.492;10.368;2024-03-06T03:41:15;98676.38;;;3.94;100.00
75317;BME280;63913;51.492;10.368;2024-03-06T03:43:42;98681.19;;;3.90;100.00
75317;BME280;63913;51.492;10.368;2024-03-06T03:46:07;98680.19;;;3.86;100.00
75317;BME280;63913;51.492;10.368;2024-03-06T03:48:34;98689.41;;;3.84;100.00
75317;BME280;63913;51.492;10.368;2024-03-06T03:51:02;98678.28;;;3.82;100.00
75317;BME280;63913;51.492;10.368;2024-03-06T03:53:29;98682.47;;;3.81;100.00
75317;BME280;63913;51.492;10.368;2024-03-06T03:55:55;98682.34;;;3.78;100.00
75317;BME280;63913;51.492;10.368;2024-03-06T03:58:20;98680.69;;;3.79;100.00
75317;BME280;63913;51.492;10.368;2024-03-06T04:00:45;98689.25;;;3.81;100.00
75317;BME280;63913;51.492;10.368;2024-03-06T04:03:11;98692.03;;;3.86;100.00
75317;BME280;63913;51.492;10.368;2024-03-06T04:05:37;98679.94;;;3.81;100.00
75317;BME280;63913;51.492;10.368;2024-03-06T04:08:02;98684.88;;;3.78;100.00
75317;BME280;63913;51.492;10.368;2024-03-06T04:10:27;98681.38;;;3.76;100.00
75317;BME280;63913;51.492;10.368;2024-03-06T04:12:53;98697.50;;;3.77;100.00
75317;BME280;63913;51.492;10.368;2024-03-06T04:15:19;98699.88;;;3.74;100.00
75317;BME280;63913;51.492;10.368;2024-03-06T04:17:45;98698.97;;;3.72;100.00
75317;BME280;63913;51.492;10.368;2024-03-06T04:20:10;98704.84;;;3.71;100.00
75317;BME280;63913;51.492;10.368;2024-03-06T04:22:38;98708.25;;;3.71;100.00
75317;BME280;63913;51.492;10.368;2024-03-06T04:25:04;98695.63;;;3.73;100.00
75317;BME280;63913;51.492;10.368;2024-03-06T04:27:30;98707.50;;;3.74;100.00
75317;BME280;63913;51.492;10.368;2024-03-06T04:29:55;98709.03;;;3.70;100.00
75317;BME280;63913;51.492;10.368;2024-03-06T04:32:20;98709.91;;;3.71;100.00
75317;BME280;63913;51.492;10.368;2024-03-06T04:34:46;98711.31;;;3.66;100.00
75317;BME280;63913;51.492;10.368;2024-03-06T04:37:11;98713.16;;;3.68;100.00
75317;BME280;63913;51.492;10.368;2024-03-06T04:39:37;98711.50;;;3.69;100.00
75317;BME280;63913;51.492;10.368;2024-03-06T04:42:02;98714.91;;;3.69;100.00
75317;BME280;63913;51.492;10.368;2024-03-06T04:44:27;98723.50;;;3.71;100.00
75317;BME280;63913;51.492;10.368;2024-03-06T04:46:53;98724.44;;;3.73;100.00
75317;BME280;63913;51.492;10.368;2024-03-06T04:49:18;98725.31;;;3.74;100.00
75317;BME280;63913;51.492;10.368;2024-03-06T04:51:43;98726.06;;;3.71;100.00
75317;BME280;63913;51.492;10.368;2024-03-06T04:54:09;98725.97;;;3.70;100.00
75317;BME280;63913;51.492;10.368;2024-03-06T04:56:34;98729.53;;;3.73;100.00
75317;BME280;63913;51.492;10.368;2024-03-06T04:58:59;98727.72;;;3.71;100.00
75317;BME280;63913;51.492;10.368;2024-03-06T05:01:29;98741.44;;;3.74;100.00
75317;BME280;63913;51.492;10.368;2024-03-06T05:03:54;98741.44;;;3.74;100.00
75317;BME280;63913;51.492;10.368;2024-03-06T05:06:21;98736.22;;;3.71;100.00
75317;BME280;63913;51.492;10.368;2024-03-06T05:08:47;98741.91;;;3.67;100.00
75317;BME280;63913;51.492;10.368;2024-03-06T05:11:12;98741.91;;;3.67;100.00
75317;BME280;63913;51.492;10.368;2024-03-06T05:13:38;98741.03;;;3.67;100.00
75317;BME280;63913;51.492;10.368;2024-03-06T05:16:03;98740.72;;;3.61;100.00
75317;BME280;63913;51.492;10.368;2024-03-06T05:18:28;98741.59;;;3.61;100.00
75317;BME280;63913;51.492;10.368;2024-03-06T05:20:54;98739.25;;;3.64;100.00
75317;BME280;63913;51.492;10.368;2024-03-06T05:23:19;98744.31;;;3.64;100.00
75317;BME280;63913;51.492;10.368;2024-03-06T05:25:45;98751.06;;;3.64;100.00
75317;BME280;63913;51.492;10.368;2024-03-06T05:28:10;98751.13;;;3.65;100.00
75317;BME280;63913;51.492;10.368;2024-03-06T05:30:35;98750.34;;;3.66;100.00
75317;BME280;63913;51.492;10.368;2024-03-06T05:33:02;98758.75;;;3.65;100.00
75317;BME280;63913;51.492;10.368;2024-03-06T05:35:27;98746.69;;;3.61;100.00
75317;BME280;63913;51.492;10.368;2024-03-06T05:37:52;98767.91;;;3.62;100.00
75317;BME280;63913;51.492;10.368;2024-03-06T05:40:18;98758.69;;;3.64;100.00
75317;BME280;63913;51.492;10.368;2024-03-06T05:42:43;98754.78;;;3.54;100.00
75317;BME280;63913;51.492;10.368;2024-03-06T05:45:08;98761.75;;;3.58;100.00
75317;BME280;63913;51.492;10.368;2024-03-06T05:47:37;98767.59;;;3.56;100.00
75317;BME280;63913;51.492;10.368;2024-03-06T05:50:04;98771.06;;;3.58;100.00
75317;BME280;63913;51.492;10.368;2024-03-06T05:52:31;98779.72;;;3.61;100.00
75317;BME280;63913;51.492;10.368;2024-03-06T05:54:56;98785.59;;;3.60;100.00
75317;BME280;63913;51.492;10.368;2024-03-06T05:57:22;98780.28;;;3.56;100.00
75317;BME280;63913;51.492;10.368;2024-03-06T05:59:47;98780.34;;;3.57;100.00
75317;BME280;63913;51.492;10.368;2024-03-06T06:02:13;98781.41;;;3.61;100.00
75317;BME280;63913;51.492;10.368;2024-03-06T06:04:38;98795.88;;;3.62;100.00
75317;BME280;63913;51.492;10.368;2024-03-06T06:07:03;98792.34;;;3.60;100.00
75317;BME280;63913;51.492;10.368;2024-03-06T06:09:29;98791.34;;;3.56;100.00
75317;BME280;63913;51.492;10.368;2024-03-06T06:11:54;98789.91;;;3.61;100.00
75317;BME280;63913;51.492;10.368;2024-03-06T06:14:19;98796.03;;;3.65;100.00
75317;BME280;63913;51.492;10.368;2024-03-06T06:16:45;98798.41;;;3.62;100.00
75317;BME280;63913;51.492;10.368;2024-03-06T06:19:10;98799.59;;;3.68;100.00
75317;BME280;63913;51.492;10.368;2024-03-06T06:21:36;98808.19;;;3.70;100.00
75317;BME280;63913;51.492;10.368;2024-03-06T06:24:03;98805.00;;;3.74;100.00
75317;BME280;63913;51.492;10.368;2024-03-06T06:26:29;98813.59;;;3.76;100.00
75317;BME280;63913;51.492;10.368;2024-03-06T06:28:57;98812.81;;;3.77;99.31
75317;BME280;63913;51.492;10.368;2024-03-06T06:31:23;98817.19;;;3.80;98.36
75317;BME280;63913;51.492;10.368;2024-03-06T06:33:48;98825.84;;;3.83;97.79
75317;BME280;63913;51.492;10.368;2024-03-06T06:36:14;98824.88;;;3.81;97.60
75317;BME280;63913;51.492;10.368;2024-03-06T06:38:40;98830.41;;;3.89;96.43
75317;BME280;63913;51.492;10.368;2024-03-06T06:41:05;98828.47;;;3.85;97.14
75317;BME280;63913;51.492;10.368;2024-03-06T06:43:30;98832.19;;;3.75;97.51
75317;BME280;63913;51.492;10.368;2024-03-06T06:45:55;98838.41;;;3.80;97.56
75317;BME280;63913;51.492;10.368;2024-03-06T06:48:21;98838.25;;;3.77;98.13
75317;BME280;63913;51.492;10.368;2024-03-06T06:50:46;98841.34;;;3.72;97.67
75317;BME280;63913;51.492;10.368;2024-03-06T06:53:13;98853.00;;;3.68;97.87
75317;BME280;63913;51.492;10.368;2024-03-06T06:55:39;98855.34;;;3.65;98.25
75317;BME280;63913;51.492;10.368;2024-03-06T06:58:04;98858.97;;;3.69;98.39
75317;BME280;63913;51.492;10.368;2024-03-06T07:00:29;98858.88;;;3.67;98.53
75317;BME280;63913;51.492;10.368;2024-03-06T07:02:55;98868.06;;;3.65;98.87
75317;BME280;63913;51.492;10.368;2024-03-06T07:05:23;98870.00;;;3.69;99.06
75317;BME280;63913;51.492;10.368;2024-03-06T07:07:49;98870.78;;;3.68;98.72
75317;BME280;63913;51.492;10.368;2024-03-06T07:10:14;98872.78;;;3.74;99.07
75317;BME280;63913;51.492;10.368;2024-03-06T07:12:42;98869.72;;;3.79;98.15
75317;BME280;63913;51.492;10.368;2024-03-06T07:15:08;98864.47;;;3.76;97.94
75317;BME280;63913;51.492;10.368;2024-03-06T07:17:34;98871.47;;;3.80;97.81
75317;BME280;63913;51.492;10.368;2024-03-06T07:19:59;98870.66;;;3.81;97.84
75317;BME280;63913;51.492;10.368;2024-03-06T07:22:25;98874.50;;;3.90;97.64
75317;BME280;63913;51.492;10.368;2024-03-06T07:24:51;98876.00;;;3.86;97.28
75317;BME280;63913;51.492;10.368;2024-03-06T07:27:16;98883.81;;;3.89;97.37
75317;BME280;63913;51.492;10.368;2024-03-06T07:29:42;98889.94;;;3.93;97.19
75317;BME280;63913;51.492;10.368;2024-03-06T07:32:07;98896.94;;;3.97;97.60
75317;BME280;63913;51.492;10.368;2024-03-06T07:34:33;98901.31;;;3.99;97.11
75317;BME280;63913;51.492;10.368;2024-03-06T07:36:59;98890.25;;;3.99;96.67
75317;BME280;63913;51.492;10.368;2024-03-06T07:39:25;98908.66;;;4.09;96.46
75317;BME280;63913;51.492;10.368;2024-03-06T07:41:50;98896.56;;;4.05;96.10
75317;BME280;63913;51.492;10.368;2024-03-06T07:44:16;98917.16;;;4.10;96.14
75317;BME280;63913;51.492;10.368;2024-03-06T07:46:42;98893.84;;;4.02;96.43
75317;BME280;63913;51.492;10.368;2024-03-06T07:49:08;98905.88;;;4.05;96.42
75317;BME280;63913;51.492;10.368;2024-03-06T07:51:34;98900.78;;;4.05;96.51
75317;BME280;63913;51.492;10.368;2024-03-06T07:53:59;98906.75;;;4.05;96.10
75317;BME280;63913;51.492;10.368;2024-03-06T07:56:25;98908.88;;;4.14;95.31
75317;BME280;63913;51.492;10.368;2024-03-06T07:58:51;98910.59;;;4.13;95.25
75317;BME280;63913;51.492;10.368;2024-03-06T08:01:17;98908.19;;;4.16;94.92
75317;BME280;63913;51.492;10.368;2024-03-06T08:03:42;98916.31;;;4.26;94.35
75317;BME280;63913;51.492;10.368;2024-03-06T08:06:11;98922.59;;;4.32;94.16
75317;BME280;63913;51.492;10.368;2024-03-06T08:08:36;98917.69;;;4.35;93.06
75317;BME280;63913;51.492;10.368;2024-03-06T08:11:02;98919.56;;;4.39;93.67
75317;BME280;63913;51.492;10.368;2024-03-06T08:13:28;98918.78;;;4.40;93.31
75317;BME280;63913;51.492;10.368;2024-03-06T08:15:57;98930.25;;;4.48;93.40
75317;BME280;63913;51.492;10.368;2024-03-06T08:18:22;98924.47;;;4.51;92.98
75317;BME280;63913;51.492;10.368;2024-03-06T08:20:48;98933.75;;;4.50;93.50
75317;BME280;63913;51.492;10.368;2024-03-06T08:23:13;98943.28;;;4.54;93.06
75317;BME280;63913;51.492;10.368;2024-03-06T08:25:38;98932.97;;;4.51;92.60
75317;BME280;63913;51.492;10.368;2024-03-06T08:28:04;98946.50;;;4.67;92.82
75317;BME280;63913;51.492;10.368;2024-03-06T08:30:31;98944.75;;;4.66;92.29
75317;BME280;63913;51.492;10.368;2024-03-06T08:32:56;98947.28;;;4.66;91.52
75317;BME280;63913;51.492;10.368;2024-03-06T08:35:22;98945.72;;;4.68;91.78
75317;BME280;63913;51.492;10.368;2024-03-06T08:37:49;98936.53;;;4.71;92.21
75317;BME280;63913;51.492;10.368;2024-03-06T08:40:16;98952.88;;;4.75;92.93
75317;BME280;63913;51.492;10.368;2024-03-06T08:42:45;98945.63;;;4.82;92.76
75317;BME280;63913;51.492;10.368;2024-03-06T08:45:13;98950.63;;;4.81;91.92
75317;BME280;63913;51.492;10.368;2024-03-06T08:47:40;98954.84;;;4.80;92.09
75317;BME280;63913;51.492;10.368;2024-03-06T08:50:07;98951.81;;;4.87;91.50
75317;BME280;63913;51.492;10.368;2024-03-06T08:52:33;98954.38;;;4.87;91.47
75317;BME280;63913;51.492;10.368;2024-03-06T08:55:00;98960.19;;;5.01;91.57
75317;BME280;63913;51.492;10.368;2024-03-06T08:57:28;98968.22;;;5.09;91.47
75317;BME280;63913;51.492;10.368;2024-03-06T08:59:55;98969.25;;;5.12;91.81
75317;BME280;63913;51.492;10.368;2024-03-06T09:02:21;98968.63;;;5.16;91.24
75317;BME280;63913;51.492;10.368;2024-03-06T09:04:46;98964.22;;;5.14;91.58
75317;BME280;63913;51.492;10.368;2024-03-06T09:07:12;98972.25;;;5.21;91.11
75317;BME280;63913;51.492;10.368;2024-03-06T09:09:39;98974.72;;;5.20;91.46
75317;BME280;63913;51.492;10.368;2024-03-06T09:12:08;98976.94;;;5.30;92.01
75317;BME280;63913;51.492;10.368;2024-03-06T09:14:38;98975.53;;;5.35;92.05
75317;BME280;63913;51.492;10.368;2024-03-06T09:17:04;98982.50;;;5.39;90.65
75317;BME280;63913;51.492;10.368;2024-03-06T09:19:31;98979.47;;;5.46;90.25
75317;BME280;63913;51.492;10.368;2024-03-06T09:21:57;98989.09;;;5.52;90.84
75317;BME280;63913;51.492;10.368;2024-03-06T09:24:23;98992.09;;;5.61;89.51
75317;BME280;63913;51.492;10.368;2024-03-06T09:26:49;99000.06;;;5.67;88.90
75317;BME280;63913;51.492;10.368;2024-03-06T09:29:15;98995.91;;;5.69;88.96
75317;BME280;63913;51.492;10.368;2024-03-06T09:31:42;98998.19;;;5.81;88.52
75317;BME280;63913;51.492;10.368;2024-03-06T09:34:07;99001.44;;;5.94;86.40
75317;BME280;63913;51.492;10.368;2024-03-06T09:36:32;99013.94;;;6.24;84.79
75317;BME280;63913;51.492;10.368;2024-03-06T09:38:59;98999.50;;;6.43;82.65
75317;BME280;63913;51.492;10.368;2024-03-06T09:41:24;98999.66;;;6.64;82.18
75317;BME280;63913;51.492;10.368;2024-03-06T09:43:50;99009.44;;;6.74;80.83
75317;BME280;63913;51.492;10.368;2024-03-06T09:46:17;99012.31;;;6.80;80.38
75317;BME280;63913;51.492;10.368;2024-03-06T09:48:47;99009.16;;;6.86;79.92
75317;BME280;63913;51.492;10.368;2024-03-06T09:51:12;99020.38;;;7.09;80.43
75317;BME280;63913;51.492;10.368;2024-03-06T09:53:39;99008.97;;;7.20;79.63
75317;BME280;63913;51.492;10.368;2024-03-06T09:56:05;99017.19;;;7.53;78.15
75317;BME280;63913;51.492;10.368;2024-03-06T09:58:31;99012.63;;;7.86;76.57
75317;BME280;63913;51.492;10.368;2024-03-06T10:00:59;99012.44;;;8.45;75.28
75317;BME280;63913;51.492;10.368;2024-03-06T10:03:25;99007.84;;;8.81;73.23
75317;BME280;63913;51.492;10.368;2024-03-06T10:05:51;99009.81;;;8.88;71.03
75317;BME280;63913;51.492;10.368;2024-03-06T10:08:16;99007.09;;;8.84;70.18
75317;BME280;63913;51.492;10.368;2024-03-06T10:10:42;99010.22;;;8.99;70.69
75317;BME280;63913;51.492;10.368;2024-03-06T10:13:08;99016.13;;;9.20;70.68
75317;BME280;63913;51.492;10.368;2024-03-06T10:15:33;99019.16;;;9.34;68.26
75317;BME280;63913;51.492;10.368;2024-03-06T10:18:14;99023.13;;;9.49;66.99
75317;BME280;63913;51.492;10.368;2024-03-06T10:20:41;99012.34;;;9.34;67.37
75317;BME280;63913;51.492;10.368;2024-03-06T10:23:09;99022.25;;;9.73;67.19
75317;BME280;63913;51.492;10.368;2024-03-06T10:25:36;99028.34;;;10.02;66.41
75317;BME280;63913;51.492;10.368;2024-03-06T10:28:06;99034.66;;;10.11;65.80
75317;BME280;63913;51.492;10.368;2024-03-06T10:30:36;99024.59;;;9.92;63.89
75317;BME280;63913;51.492;10.368;2024-03-06T10:33:03;99030.56;;;9.91;64.99
75317;BME280;63913;51.492;10.368;2024-03-06T10:35:28;99033.81;;;9.85;63.93
75317;BME280;63913;51.492;10.368;2024-03-06T10:37:54;99041.41;;;9.82;65.91
75317;BME280;63913;51.492;10.368;2024-03-06T10:40:22;99036.13;;;9.78;66.42
75317;BME280;63913;51.492;10.368;2024-03-06T10:42:48;99042.59;;;10.17;65.40
75317;BME280;63913;51.492;10.368;2024-03-06T10:45:14;99043.56;;;10.48;64.18
75317;BME280;63913;51.492;10.368;2024-03-06T10:47:46;99046.72;;;10.39;62.96
75317;BME280;63913;51.492;10.368;2024-03-06T10:50:14;99051.09;;;9.91;64.11
75317;BME280;63913;51.492;10.368;2024-03-06T10:52:40;99055.84;;;10.04;64.58
75317;BME280;63913;51.492;10.368;2024-03-06T10:55:07;99052.75;;;10.40;63.68
75317;BME280;63913;51.492;10.368;2024-03-06T10:57:36;99051.38;;;10.51;62.64
75317;BME280;63913;51.492;10.368;2024-03-06T11:00:03;99053.59;;;10.67;61.07
75317;BME280;63913;51.492;10.368;2024-03-06T11:02:29;99053.78;;;10.73;59.74
75317;BME280;63913;51.492;10.368;2024-03-06T11:04:54;99055.34;;;10.68;60.22
75317;BME280;63913;51.492;10.368;2024-03-06T11:07:20;99063.28;;;10.22;61.52
75317;BME280;63913;51.492;10.368;2024-03-06T11:09:46;99066.16;;;10.31;61.78
75317;BME280;63913;51.492;10.368;2024-03-06T11:12:35;99055.63;;;10.23;60.88
75317;BME280;63913;51.492;10.368;2024-03-06T11:15:08;99068.22;;;10.16;61.56
75317;BME280;63913;51.492;10.368;2024-03-06T11:17:34;99062.59;;;10.26;61.95
75317;BME280;63913;51.492;10.368;2024-03-06T11:28:27;99061.53;;;9.70;63.11
75317;BME280;63913;51.492;10.368;2024-03-06T11:31:07;99068.50;;;9.74;65.60
75317;BME280;63913;51.492;10.368;2024-03-06T11:33:44;99060.22;;;9.57;64.45
75317;BME280;63913;51.492;10.368;2024-03-06T11:36:24;99063.94;;;9.42;65.39
75317;BME280;63913;51.492;10.368;2024-03-06T11:38:57;99062.91;;;9.37;65.42
75317;BME280;63913;51.492;10.368;2024-03-06T11:41:29;99060.75;;;9.25;66.15
75317;BME280;63913;51.492;10.368;2024-03-06T11:43:55;99060.28;;;9.11;67.07
75317;BME280;63913;51.492;10.368;2024-03-06T11:49:29;99071.19;;;8.84;68.81
75317;BME280;63913;51.492;10.368;2024-03-06T11:51:58;99065.75;;;8.76;68.99
75317;BME280;63913;51.492;10.368;2024-03-06T11:54:24;99068.22;;;8.73;70.10
75317;BME280;63913;51.492;10.368;2024-03-06T11:56:55;99066.31;;;8.67;69.96
75317;BME280;63913;51.492;10.368;2024-03-06T11:59:22;99067.03;;;8.65;70.12
75317;BME280;63913;51.492;10.368;2024-03-06T12:01:48;99064.41;;;8.63;70.78
75317;BME280;63913;51.492;10.368;2024-03-06T12:04:13;99066.97;;;8.63;69.71
75317;BME280;63913;51.492;10.368;2024-03-06T12:06:39;99058.72;;;8.70;70.51
75317;BME280;63913;51.492;10.368;2024-03-06T12:09:04;99052.47;;;8.64;70.20
75317;BME280;63913;51.492;10.368;2024-03-06T12:11:30;99055.72;;;8.60;70.25
75317;BME280;63913;51.492;10.368;2024-03-06T12:13:56;99067.94;;;8.65;70.75
75317;BME280;63913;51.492;10.368;2024-03-06T12:16:21;99066.41;;;8.70;71.02
75317;BME280;63913;51.492;10.368;2024-03-06T12:18:54;99057.03;;;8.71;70.83
75317;BME280;63913;51.492;10.368;2024-03-06T12:21:31;99064.66;;;8.69;71.02
75317;BME280;63913;51.492;10.368;2024-03-06T12:24:02;99053.41;;;8.66;72.50
75317;BME280;63913;51.492;10.368;2024-03-06T12:26:28;99055.84;;;8.63;72.21
75317;BME280;63913;51.492;10.368;2024-03-06T12:29:06;99055.03;;;8.64;71.49
75317;BME280;63913;51.492;10.368;2024-03-06T12:31:33;99061.72;;;8.60;71.95
75317;BME280;63913;51.492;10.368;2024-03-06T12:33:59;99053.13;;;8.58;71.85
75317;BME280;63913;51.492;10.368;2024-03-06T12:36:25;99058.34;;;8.61;73.10
75317;BME280;63913;51.492;10.368;2024-03-06T12:38:54;99046.53;;;8.65;74.34
75317;BME280;63913;51.492;10.368;2024-03-06T12:41:20;99062.00;;;8.66;73.01
75317;BME280;63913;51.492;10.368;2024-03-06T12:43:46;99051.72;;;8.66;72.68
75317;BME280;63913;51.492;10.368;2024-03-06T12:46:11;99054.97;;;8.62;73.25
75317;BME280;63913;51.492;10.368;2024-03-06T12:48:36;99047.06;;;8.56;73.34
75317;BME280;63913;51.492;10.368;2024-03-06T12:51:02;99049.63;;;8.56;73.32
75317;BME280;63913;51.492;10.368;2024-03-06T12:53:30;99052.84;;;8.73;73.55
75317;BME280;63913;51.492;10.368;2024-03-06T12:55:58;99051.25;;;8.99;71.12
75317;BME280;63913;51.492;10.368;2024-03-06T12:58:24;99050.06;;;9.13;69.77
75317;BME280;63913;51.492;10.368;2024-03-06T13:00:49;99039.69;;;9.34;70.75
75317;BME280;63913;51.492;10.368;2024-03-06T13:03:15;99041.75;;;9.68;69.60